createdAt,value
2023-02-11T00:01:08.205Z,2.27
2023-02-11T00:04:59.312Z,2.25
2023-02-11T00:08:57.049Z,2.13
2023-02-11T00:12:55.048Z,2.12
2023-02-11T00:16:53.232Z,2.08
2023-02-11T00:20:54.030Z,2.14
2023-02-11T00:24:52.108Z,2.15
2023-02-11T00:28:50.046Z,2.05
2023-02-11T00:32:49.064Z,2.05
2023-02-11T00:36:47.045Z,2.05
2023-02-11T00:40:45.133Z,1.97
2023-02-11T00:44:43.109Z,1.90
2023-02-11T00:48:41.089Z,1.92
2023-02-11T00:52:39.009Z,1.93
2023-02-11T00:56:37.050Z,1.95
2023-02-11T01:00:35.984Z,1.98
2023-02-11T01:04:34.145Z,2.03
2023-02-11T01:08:32.030Z,2.01
2023-02-11T01:12:29.987Z,2.04
2023-02-11T01:16:28.187Z,2.07
2023-02-11T01:20:32.009Z,2.03
2023-02-11T01:24:30.968Z,2.00
2023-02-11T01:28:37.112Z,2.05
2023-02-11T01:32:34.968Z,2.06
2023-02-11T01:36:32.982Z,2.13
2023-02-11T01:40:31.903Z,2.18
2023-02-11T01:44:51.947Z,2.22
2023-02-11T01:48:56.138Z,2.21
2023-02-11T01:52:55.930Z,2.18
2023-02-11T01:57:15.985Z,2.17
2023-02-11T02:01:16.015Z,2.15
2023-02-11T02:05:21.945Z,2.09
2023-02-11T02:09:31.970Z,2.07
2023-02-11T02:13:29.894Z,2.04
2023-02-11T02:17:51.935Z,2.07
2023-02-11T02:22:07.888Z,2.06
2023-02-11T02:26:36.902Z,2.08
2023-02-11T02:30:53.043Z,2.09
2023-02-11T02:35:06.904Z,2.09
2023-02-11T02:39:12.867Z,2.06
2023-02-11T02:43:11.872Z,2.03
2023-02-11T02:47:09.876Z,2.04
2023-02-11T02:51:19.855Z,2.02
2023-02-11T02:55:26.844Z,1.97
2023-02-11T02:59:37.877Z,1.98
2023-02-11T03:03:42.943Z,1.97
2023-02-11T03:07:52.879Z,1.99
2023-02-11T03:11:51.822Z,2.04
2023-02-11T03:15:55.944Z,2.03
2023-02-11T03:19:57.874Z,2.04
2023-02-11T03:24:07.846Z,2.05
2023-02-11T03:28:11.818Z,2.02
2023-02-11T03:32:53.864Z,2.02
2023-02-11T03:37:26.810Z,2.05
2023-02-11T03:41:27.814Z,2.07
2023-02-11T03:45:30.948Z,2.00
2023-02-11T03:49:32.803Z,2.02
2023-02-11T03:53:31.749Z,1.98
2023-02-11T03:57:29.770Z,1.96
2023-02-11T04:01:27.907Z,1.93
2023-02-11T04:05:31.824Z,1.93
2023-02-11T04:09:29.839Z,1.95
2023-02-11T04:13:27.821Z,1.93
2023-02-11T04:17:25.800Z,1.94
2023-02-11T04:21:23.778Z,1.93
2023-02-11T04:25:22.780Z,1.79
2023-02-11T04:29:20.968Z,1.77
2023-02-11T04:33:20.791Z,1.78
2023-02-11T04:37:18.770Z,1.80
2023-02-11T04:41:16.743Z,1.79
2023-02-11T04:45:14.830Z,1.73
2023-02-11T04:49:12.911Z,1.70
2023-02-11T04:53:10.711Z,1.59
2023-02-11T04:57:08.679Z,1.49
2023-02-11T05:01:06.687Z,1.45
2023-02-11T05:05:04.725Z,1.44
2023-02-11T05:09:02.771Z,1.39
2023-02-11T05:13:02.645Z,1.33
2023-02-11T05:17:00.910Z,1.31
2023-02-11T05:20:58.735Z,1.25
2023-02-11T05:24:56.762Z,1.29
2023-02-11T05:28:55.611Z,1.36
2023-02-11T05:32:55.688Z,1.44
2023-02-11T05:36:53.666Z,1.32
2023-02-11T05:40:51.749Z,1.21
2023-02-11T05:44:50.676Z,1.21
2023-02-11T05:48:48.655Z,1.22
2023-02-11T05:52:46.608Z,1.20
2023-02-11T05:56:45.090Z,1.15
2023-02-11T06:00:42.587Z,1.13
2023-02-11T06:04:40.646Z,1.03
2023-02-11T06:08:39.411Z,0.93
2023-02-11T06:12:37.599Z,0.91
2023-02-11T06:16:35.562Z,0.86
2023-02-11T06:20:33.658Z,0.87
2023-02-11T06:24:54.705Z,0.81
2023-02-11T06:28:49.586Z,0.92
2023-02-11T06:32:47.636Z,1.01
2023-02-11T06:36:45.570Z,1.06
2023-02-11T06:40:43.656Z,1.04
2023-02-11T06:44:41.570Z,1.14
2023-02-11T06:48:39.556Z,1.19
2023-02-11T06:52:37.524Z,1.20
2023-02-11T06:56:37.503Z,1.16
2023-02-11T07:00:35.536Z,1.26
2023-02-11T07:04:33.481Z,1.40
2023-02-11T07:08:31.513Z,1.49
2023-02-11T07:12:29.453Z,1.52
2023-02-11T07:16:30.533Z,1.56
2023-02-11T07:20:28.551Z,1.64
2023-02-11T07:24:27.565Z,1.68
2023-02-11T07:28:25.491Z,1.69
2023-02-11T07:32:23.488Z,1.81
2023-02-11T07:36:23.465Z,2.08
2023-02-11T07:40:21.520Z,2.23
2023-02-11T07:44:20.431Z,2.32
2023-02-11T07:48:18.465Z,2.36
2023-02-11T07:52:16.486Z,2.47
2023-02-11T07:56:14.506Z,2.44
2023-02-11T08:00:12.493Z,2.54
2023-02-11T08:04:11.445Z,2.62
2023-02-11T08:08:09.475Z,2.71
2023-02-11T08:12:07.456Z,2.63
2023-02-11T08:16:05.481Z,2.81
2023-02-11T08:20:04.462Z,3.04
2023-02-11T08:24:02.464Z,3.26
2023-02-11T08:28:00.668Z,3.28
2023-02-11T08:32:00.457Z,3.43
2023-02-11T08:35:58.441Z,3.87
2023-02-11T08:39:56.426Z,3.98
2023-02-11T08:43:54.415Z,4.04
2023-02-11T08:47:52.422Z,3.98
2023-02-11T08:51:50.425Z,3.95
2023-02-11T08:55:48.558Z,3.98
2023-02-11T08:59:46.355Z,3.89
2023-02-11T09:03:44.407Z,4.10
2023-02-11T09:07:43.395Z,4.34
2023-02-11T09:11:49.351Z,4.39
2023-02-11T09:15:47.398Z,4.39
2023-02-11T09:19:45.429Z,4.44
2023-02-11T09:23:43.405Z,4.50
2023-02-11T09:27:41.380Z,4.50
2023-02-11T09:31:41.587Z,4.46
2023-02-11T09:35:39.391Z,4.46
2023-02-11T09:39:37.377Z,4.56
2023-02-11T09:43:41.407Z,4.74
2023-02-11T09:47:44.348Z,4.78
2023-02-11T09:51:56.292Z,5.02
2023-02-11T09:55:59.296Z,5.29
2023-02-11T09:59:58.495Z,5.32
2023-02-11T10:04:39.401Z,5.28
2023-02-11T10:08:46.241Z,4.93
2023-02-11T10:13:09.318Z,4.73
2023-02-11T10:17:22.054Z,4.91
2023-02-11T10:21:47.291Z,4.84
2023-02-11T10:25:55.292Z,4.98
2023-02-11T10:30:10.271Z,5.14
2023-02-11T10:34:18.233Z,5.14
2023-02-11T10:38:16.369Z,5.09
2023-02-11T10:42:20.393Z,4.90
2023-02-11T10:46:19.394Z,4.65
2023-02-11T10:50:43.282Z,4.49
2023-02-11T10:54:41.271Z,4.38
2023-02-11T10:58:42.300Z,4.39
2023-02-11T11:02:50.219Z,4.39
2023-02-11T11:06:49.219Z,4.48
2023-02-11T11:11:18.211Z,4.47
2023-02-11T11:15:37.331Z,4.46
2023-02-11T11:19:38.225Z,4.50
2023-02-11T11:23:38.296Z,4.30
2023-02-11T11:27:39.264Z,4.23
2023-02-11T11:31:41.159Z,4.15
2023-02-11T11:35:44.231Z,4.06
2023-02-11T11:39:48.108Z,3.97
2023-02-11T11:43:46.285Z,3.84
2023-02-11T11:47:54.152Z,3.77
2023-02-11T11:51:56.331Z,3.69
2023-02-11T11:55:54.147Z,3.76
2023-02-11T11:59:52.238Z,3.84
2023-02-11T12:04:17.143Z,3.75
2023-02-11T12:08:45.138Z,3.56
2023-02-11T12:12:46.853Z,3.41
2023-02-11T12:17:14.169Z,3.34
2023-02-11T12:21:36.163Z,3.33
2023-02-11T12:25:43.114Z,3.26
2023-02-11T12:30:12.092Z,3.12
2023-02-11T12:34:30.140Z,3.02
2023-02-11T12:38:53.110Z,3.01
2023-02-11T12:43:24.043Z,2.97
2023-02-11T12:47:41.065Z,2.89
2023-02-11T12:52:06.101Z,2.73
2023-02-11T12:56:11.026Z,2.61
2023-02-11T13:00:19.151Z,2.65
2023-02-11T13:04:26.043Z,2.68
2023-02-11T13:08:47.058Z,2.71
2023-02-11T13:13:04.110Z,2.72
2023-02-11T13:17:05.046Z,2.66
2023-02-11T13:21:11.103Z,2.60
2023-02-11T13:25:20.041Z,2.59
2023-02-11T13:29:40.139Z,2.60
2023-02-11T13:33:56.037Z,2.64
2023-02-11T13:37:54.175Z,2.64
2023-02-11T13:41:56.026Z,2.70
2023-02-11T13:46:00.051Z,2.72
2023-02-11T13:50:04.986Z,2.80
2023-02-11T13:54:13.066Z,2.77
2023-02-11T13:58:24.152Z,2.77
2023-02-11T14:03:00.020Z,2.81
2023-02-11T14:07:56.982Z,2.81
2023-02-11T14:11:55.060Z,2.80
2023-02-11T14:15:54.925Z,2.77
2023-02-11T14:19:53.984Z,2.73
2023-02-11T14:23:51.970Z,2.68
2023-02-11T14:28:04.026Z,2.69
2023-02-11T14:32:19.931Z,2.71
2023-02-11T14:36:31.988Z,2.79
2023-02-11T14:40:46.963Z,2.77
2023-02-11T14:44:47.916Z,2.76
2023-02-11T14:48:50.924Z,2.77
2023-02-11T14:52:52.934Z,2.82
2023-02-11T14:56:50.877Z,2.81
2023-02-11T15:00:49.108Z,2.80
2023-02-11T15:04:49.098Z,2.83
2023-02-11T15:08:50.847Z,2.83
2023-02-11T15:12:48.888Z,2.81
2023-02-11T15:16:47.953Z,2.83
2023-02-11T15:20:46.855Z,2.81
2023-02-11T15:24:47.871Z,2.82
2023-02-11T15:28:49.875Z,2.81
2023-02-11T15:32:47.855Z,2.83
2023-02-11T15:36:45.960Z,2.83
2023-02-11T15:40:46.888Z,2.87
2023-02-11T15:44:50.515Z,2.92
2023-02-11T15:49:06.891Z,2.92
2023-02-11T15:52:48.438Z,2.91
2023-02-11T15:56:26.224Z,2.94
2023-02-11T15:59:54.259Z,2.91
2023-02-11T16:03:28.729Z,2.93
2023-02-11T16:06:55.147Z,2.95
2023-02-11T16:10:26.939Z,2.94
2023-02-11T16:13:50.859Z,2.94
2023-02-11T16:17:20.451Z,2.93
2023-02-11T16:20:49.201Z,2.94
2023-02-11T16:24:22.466Z,2.94
2023-02-11T16:27:50.343Z,2.96
2023-02-11T16:31:14.354Z,2.96
2023-02-11T16:34:38.418Z,2.97
2023-02-11T16:38:02.522Z,2.97
2023-02-11T16:41:26.433Z,3.00
2023-02-11T16:44:50.318Z,3.03
2023-02-11T16:48:19.184Z,3.06
2023-02-11T16:51:44.173Z,3.10
2023-02-11T16:55:11.553Z,3.13
2023-02-11T16:58:35.395Z,3.16
2023-02-11T17:01:59.597Z,3.18
2023-02-11T17:05:26.035Z,3.24
2023-02-11T17:08:50.137Z,3.30
2023-02-11T17:12:14.081Z,3.34
2023-02-11T17:15:38.063Z,3.36
2023-02-11T17:19:02.371Z,3.41
2023-02-11T17:22:26.538Z,3.43
2023-02-11T17:25:56.938Z,3.42
2023-02-11T17:29:23.645Z,3.43
2023-02-11T17:32:48.415Z,3.43
2023-02-11T17:36:12.387Z,3.45
2023-02-11T17:39:41.003Z,3.50
2023-02-11T17:43:05.375Z,3.54
2023-02-11T17:46:29.573Z,3.59
2023-02-11T17:49:53.445Z,3.63
2023-02-11T17:53:17.519Z,3.68
2023-02-11T17:56:42.284Z,3.72
2023-02-11T18:00:08.792Z,3.74
2023-02-11T18:03:39.200Z,3.76
2023-02-11T18:07:03.040Z,3.77
2023-02-11T18:10:28.498Z,3.76
2023-02-11T18:13:54.613Z,3.75
2023-02-11T18:17:19.425Z,3.75
2023-02-11T18:20:45.062Z,3.78
2023-02-11T18:24:09.193Z,3.79
2023-02-11T18:27:33.701Z,3.81
2023-02-11T18:30:59.584Z,3.84
2023-02-11T18:34:23.866Z,3.87
2023-02-11T18:37:48.083Z,3.93
2023-02-11T18:41:13.665Z,3.96
2023-02-11T18:44:38.215Z,3.95
2023-02-11T18:48:05.281Z,3.96
2023-02-11T18:51:31.962Z,3.96
2023-02-11T18:54:57.066Z,3.98
2023-02-11T18:58:21.683Z,3.99
2023-02-11T19:01:47.129Z,4.02
2023-02-11T19:05:13.713Z,4.01
2023-02-11T19:08:37.555Z,4.00
2023-02-11T19:12:04.955Z,3.99
2023-02-11T19:15:29.105Z,4.01
2023-02-11T19:18:53.020Z,4.05
2023-02-11T19:22:18.985Z,4.07
2023-02-11T19:25:47.819Z,4.08
2023-02-11T19:29:11.763Z,4.04
2023-02-11T19:32:35.704Z,4.08
2023-02-11T19:36:07.488Z,4.11
2023-02-11T19:39:31.653Z,4.14
2023-02-11T19:42:55.739Z,4.11
2023-02-11T19:46:28.064Z,4.11
2023-02-11T19:49:52.307Z,4.14
2023-02-11T19:53:16.306Z,4.18
2023-02-11T19:56:40.376Z,4.19
2023-02-11T20:00:05.867Z,4.20
2023-02-11T20:03:40.739Z,4.17
2023-02-11T20:07:07.420Z,4.17
2023-02-11T20:10:31.352Z,4.22
2023-02-11T20:13:55.714Z,4.23
2023-02-11T20:17:19.631Z,4.29
2023-02-11T20:20:43.709Z,4.36
2023-02-11T20:24:07.893Z,4.36
2023-02-11T20:27:32.301Z,4.34
2023-02-11T20:30:58.548Z,4.35
2023-02-11T20:34:22.526Z,4.33
2023-02-11T20:37:46.752Z,4.30
2023-02-11T20:41:14.565Z,4.27
2023-02-11T20:44:39.435Z,4.27
2023-02-11T20:48:05.595Z,4.27
2023-02-11T20:51:34.129Z,4.27
2023-02-11T20:54:58.389Z,4.29
2023-02-11T20:58:23.073Z,4.31
2023-02-11T21:01:53.770Z,4.32
2023-02-11T21:05:18.061Z,4.33
2023-02-11T21:08:41.918Z,4.32
2023-02-11T21:12:06.470Z,4.33
2023-02-11T21:15:32.100Z,4.33
2023-02-11T21:18:57.071Z,4.32
2023-02-11T21:22:21.092Z,4.33
2023-02-11T21:25:45.089Z,4.33
2023-02-11T21:29:09.964Z,4.39
2023-02-11T21:32:33.962Z,4.39
2023-02-11T21:35:59.697Z,4.39
2023-02-11T21:39:24.140Z,4.39
2023-02-11T21:42:48.158Z,4.38
2023-02-11T21:46:17.723Z,4.39
2023-02-11T21:49:41.736Z,4.42
2023-02-11T21:53:07.133Z,4.39
2023-02-11T21:56:33.771Z,4.36
2023-02-11T21:59:57.750Z,4.36
2023-02-11T22:03:22.821Z,4.37
2023-02-11T22:06:47.405Z,4.34
2023-02-11T22:10:11.782Z,4.31
2023-02-11T22:13:36.594Z,4.26
2023-02-11T22:17:00.496Z,4.12
2023-02-11T22:20:24.853Z,4.07
2023-02-11T22:23:49.750Z,4.05
2023-02-11T22:27:14.866Z,4.02
2023-02-11T22:30:38.819Z,4.00
2023-02-11T22:34:04.940Z,4.00
2023-02-11T22:37:29.597Z,4.02
2023-02-11T22:40:53.991Z,3.99
2023-02-11T22:44:18.559Z,3.93
2023-02-11T22:47:42.440Z,3.93
2023-02-11T22:51:12.168Z,3.92
2023-02-11T22:54:36.207Z,3.89
2023-02-11T22:58:00.119Z,3.91
2023-02-11T23:01:24.231Z,3.94
2023-02-11T23:04:49.948Z,3.94
2023-02-11T23:08:13.850Z,3.93
2023-02-11T23:11:37.733Z,3.86
2023-02-11T23:15:03.902Z,3.79
2023-02-11T23:18:28.829Z,3.75
2023-02-11T23:21:53.536Z,3.67
2023-02-11T23:25:17.647Z,3.33
2023-02-11T23:28:41.928Z,2.93
2023-02-11T23:32:06.158Z,2.66
2023-02-11T23:35:30.065Z,2.46
2023-02-11T23:38:55.809Z,2.28
2023-02-11T23:42:19.560Z,2.16
2023-02-11T23:45:43.530Z,2.02
2023-02-11T23:49:07.555Z,1.92
2023-02-11T23:52:31.528Z,1.80
2023-02-11T23:55:55.724Z,1.73
2023-02-11T23:59:20.086Z,1.68
